Time;durP1;ratioP1;P1;durP2;ratioP2;P2;SDS_P1;SDS_P2;PMS_P1;PMS_P2;Temp;Humidity;BMP_temperature;BMP_pressure;BME280_temperature;BME280_humidity;BME280_pressure;Samples;Min_cycle;Max_cycle;Signal;HPM_P1;HPM_P2
2023/06/26 00:01:01;;;;;;;22.25;15.57;;;;;;;24.77;62.34;101081.09;4993022;28;20023;-63
2023/06/26 00:03:28;;;;;;;22.00;16.42;;;;;;;24.67;62.65;101082.63;4994598;28;20027;-64
2023/06/26 00:05:54;;;;;;;22.38;15.70;;;;;;;24.66;62.66;101069.69;4994734;28;20109;-64
2023/06/26 00:08:19;;;;;;;21.00;15.68;;;;;;;24.65;62.49;101081.44;4994456;28;20105;-64
2023/06/26 00:10:46;;;;;;;21.17;15.65;;;;;;;24.54;63.07;101084.22;4994428;28;20037;-64
2023/06/26 00:13:12;;;;;;;20.98;15.38;;;;;;;24.48;63.21;101088.63;4994455;28;20054;-64
2023/06/26 00:15:37;;;;;;;22.63;15.75;;;;;;;24.30;64.07;101093.00;4994252;28;20470;-65
2023/06/26 00:18:03;;;;;;;22.25;15.68;;;;;;;24.16;63.93;101089.28;5004370;28;20026;-64
2023/06/26 00:20:28;;;;;;;22.27;16.02;;;;;;;24.04;64.47;101079.13;5013828;28;20026;-64
2023/06/26 00:22:55;;;;;;;22.50;15.43;;;;;;;23.98;64.69;101078.66;5013700;28;20038;-64
2023/06/26 00:25:20;;;;;;;21.58;15.68;;;;;;;23.95;64.85;101079.44;5013708;28;20032;-65
2023/06/26 00:27:46;;;;;;;20.98;15.57;;;;;;;23.91;64.99;101076.56;5013723;28;20405;-65
2023/06/26 00:30:12;;;;;;;22.00;15.18;;;;;;;23.86;65.07;101074.09;5013560;28;20046;-64
2023/06/26 00:32:37;;;;;;;21.38;14.98;;;;;;;23.85;65.37;101075.31;5013300;28;20088;-64
2023/06/26 00:35:02;;;;;;;21.77;15.32;;;;;;;23.81;65.08;101071.66;5013581;28;20108;-64
2023/06/26 00:37:28;;;;;;;21.23;15.30;;;;;;;23.77;64.82;101076.44;5013527;28;20029;-64
2023/06/26 00:39:53;;;;;;;21.23;15.02;;;;;;;23.68;65.16;101068.31;5013559;28;20021;-64
2023/06/26 00:42:18;;;;;;;22.20;15.48;;;;;;;23.65;65.46;101083.22;5013565;28;20501;-64
2023/06/26 00:44:44;;;;;;;20.65;14.27;;;;;;;23.63;65.47;101077.16;5013470;28;20030;-64
2023/06/26 00:47:14;;;;;;;21.23;14.70;;;;;;;23.56;65.40;101065.81;5013337;28;20025;-65
2023/06/26 00:49:39;;;;;;;21.48;14.93;;;;;;;23.56;65.51;101072.28;5013498;28;20507;-65
2023/06/26 00:52:05;;;;;;;20.38;14.95;;;;;;;23.53;65.64;101078.69;5012047;28;20054;-64
2023/06/26 00:54:31;;;;;;;21.17;15.13;;;;;;;23.51;65.95;101076.28;5013284;28;20030;-64
2023/06/26 00:56:56;;;;;;;21.08;15.23;;;;;;;23.50;65.62;101077.47;5013323;28;20167;-64
2023/06/26 00:59:21;;;;;;;19.92;14.27;;;;;;;23.48;65.98;101087.50;5013229;28;20113;-65
2023/06/26 01:01:48;;;;;;;22.13;14.98;;;;;;;23.46;65.38;101087.09;5013200;28;20040;-64
2023/06/26 01:04:17;;;;;;;20.45;14.98;;;;;;;23.43;64.79;101083.03;4993227;28;20390;-64
2023/06/26 01:06:48;;;;;;;21.98;14.90;;;;;;;23.32;65.07;101076.50;4993319;28;20398;-64
2023/06/26 01:09:16;;;;;;;21.63;15.15;;;;;;;23.40;65.18;101083.00;4993329;28;20034;-64
2023/06/26 01:11:41;;;;;;;21.05;15.25;;;;;;;23.30;65.28;101078.88;4993141;28;20026;-63
2023/06/26 01:14:07;;;;;;;21.63;15.00;;;;;;;23.19;65.42;101082.41;4993171;28;20431;-64
2023/06/26 01:16:33;;;;;;;22.08;15.30;;;;;;;23.13;65.77;101089.59;4993197;28;20041;-64
2023/06/26 01:18:59;;;;;;;22.00;15.65;;;;;;;23.05;66.06;101097.16;4993240;28;20034;-65
2023/06/26 01:21:32;;;;;;;21.42;14.48;;;;;;;23.00;66.66;101096.69;4992959;28;20154;-65
2023/06/26 01:24:21;;;;;;;21.40;15.27;;;;;;;22.98;66.60;101102.72;4993222;28;20030;-65
2023/06/26 01:26:49;;;;;;;20.80;15.27;;;;;;;22.85;67.56;101105.00;4992676;28;20034;-65
2023/06/26 01:29:16;;;;;;;21.05;15.32;;;;;;;22.80;67.88;101101.72;4992904;28;20138;-64
2023/06/26 01:31:43;;;;;;;23.33;15.30;;;;;;;22.73;68.47;101099.59;4993133;28;20030;-65
2023/06/26 01:34:09;;;;;;;22.00;15.80;;;;;;;22.70;68.79;101106.84;4993030;28;20026;-65
2023/06/26 01:36:34;;;;;;;23.48;15.88;;;;;;;22.60;69.50;101101.88;4991512;28;20406;-64
2023/06/26 01:39:00;;;;;;;21.40;15.70;;;;;;;22.53;69.74;101113.84;4992787;28;20030;-64
2023/06/26 01:41:25;;;;;;;24.17;17.10;;;;;;;22.43;70.46;101112.50;4991414;28;20054;-64
2023/06/26 01:44:06;;;;;;;21.90;16.13;;;;;;;22.39;70.32;101120.09;4991973;28;20038;-64
2023/06/26 01:46:41;;;;;;;21.98;15.80;;;;;;;22.30;70.44;101116.72;4992883;28;20037;-64
2023/06/26 01:49:12;;;;;;;22.27;15.65;;;;;;;22.25;70.63;101120.69;4992858;28;20018;-65
2023/06/26 01:51:55;;;;;;;23.30;15.70;;;;;;;22.19;70.77;101132.66;4992620;28;20132;-64
2023/06/26 01:54:23;;;;;;;20.63;14.20;;;;;;;22.11;70.80;101131.72;4992831;28;20027;-64
2023/06/26 01:56:50;;;;;;;20.35;13.90;;;;;;;22.02;70.70;101131.19;4991218;28;20426;-65
2023/06/26 01:59:17;;;;;;;20.75;13.75;;;;;;;22.01;70.62;101135.22;4991277;28;20057;-64
2023/06/26 02:01:43;;;;;;;19.90;13.00;;;;;;;21.94;70.02;101142.34;4992495;28;20030;-65
2023/06/26 02:04:08;;;;;;;19.60;12.30;;;;;;;21.92;70.66;101144.72;4992468;28;20058;-65
2023/06/26 02:06:33;;;;;;;20.77;12.90;;;;;;;21.88;70.81;101134.59;4992524;28;20451;-65
2023/06/26 02:08:59;;;;;;;20.15;13.00;;;;;;;21.87;70.94;101147.88;4992788;28;20113;-66
2023/06/26 02:11:24;;;;;;;20.38;11.98;;;;;;;21.87;71.07;101147.06;4992676;28;20054;-64
2023/06/26 02:13:49;;;;;;;19.70;12.57;;;;;;;21.85;70.97;101150.25;4992479;28;20045;-64
2023/06/26 02:16:15;;;;;;;20.50;12.63;;;;;;;21.83;71.20;101134.91;4992504;28;20042;-65
2023/06/26 02:18:41;;;;;;;20.33;13.02;;;;;;;21.81;71.41;101144.56;4992335;28;20039;-65
2023/06/26 02:21:07;;;;;;;20.58;12.80;;;;;;;21.76;71.54;101144.88;4991392;28;20038;-64
2023/06/26 02:23:32;;;;;;;20.25;12.27;;;;;;;21.72;72.07;101146.81;4992465;28;20089;-65
2023/06/26 02:25:57;;;;;;;19.50;12.20;;;;;;;21.69;71.90;101144.75;4992526;28;20037;-65
2023/06/26 02:28:23;;;;;;;20.38;12.93;;;;;;;21.65;72.38;101143.88;4992259;28;20392;-65
2023/06/26 02:30:48;;;;;;;21.67;12.80;;;;;;;21.54;72.56;101140.81;4992476;28;20036;-65
2023/06/26 02:33:13;;;;;;;20.40;12.77;;;;;;;21.51;72.93;101142.41;4992425;28;20027;-65
2023/06/26 02:35:39;;;;;;;20.98;13.18;;;;;;;21.46;73.18;101147.50;4992507;28;20473;-65
2023/06/26 02:38:04;;;;;;;19.77;12.60;;;;;;;21.42;72.86;101146.66;5008397;28;20390;-66
2023/06/26 02:40:29;;;;;;;19.27;12.30;;;;;;;21.37;73.04;101156.22;5010620;28;20474;-64
2023/06/26 02:42:55;;;;;;;20.45;12.70;;;;;;;21.31;73.14;101155.69;5012067;28;20022;-65
2023/06/26 02:45:20;;;;;;;20.48;11.88;;;;;;;21.29;72.57;101158.06;5011814;28;20390;-64
2023/06/26 02:47:45;;;;;;;18.55;11.15;;;;;;;21.17;72.57;101158.22;5011774;28;20044;-64
2023/06/26 02:50:11;;;;;;;20.20;12.68;;;;;;;21.12;72.20;101161.34;5012155;28;20092;-64
2023/06/26 02:52:36;;;;;;;20.20;12.10;;;;;;;21.06;72.96;101171.28;4997210;28;20054;-65
2023/06/26 02:55:01;;;;;;;21.17;12.38;;;;;;;21.05;73.33;101162.00;4994821;28;20022;-65
2023/06/26 02:57:27;;;;;;;20.73;12.13;;;;;;;21.02;73.36;101172.00;4995926;28;20034;-65
2023/06/26 02:59:52;;;;;;;19.88;11.82;;;;;;;20.97;73.49;101177.91;4995823;28;20026;-65
2023/06/26 03:02:17;;;;;;;18.83;11.50;;;;;;;20.95;73.86;101174.69;4995646;28;20193;-65
2023/06/26 03:04:43;;;;;;;19.65;11.88;;;;;;;20.95;74.09;101179.47;4995547;28;20065;-65
2023/06/26 03:07:08;;;;;;;18.92;11.35;;;;;;;20.90;74.25;101180.59;4995309;28;20544;-64
2023/06/26 03:09:34;;;;;;;19.27;11.55;;;;;;;20.81;74.82;101185.63;4995314;28;20049;-64
2023/06/26 03:11:59;;;;;;;21.60;11.82;;;;;;;20.80;75.45;101186.78;4995780;28;20026;-64
2023/06/26 03:14:24;;;;;;;20.58;12.40;;;;;;;20.78;75.71;101186.38;4995508;28;20038;-66
2023/06/26 03:16:52;;;;;;;19.25;12.23;;;;;;;20.70;76.07;101179.75;4995361;28;20030;-65
2023/06/26 03:19:18;;;;;;;19.33;12.35;;;;;;;20.64;76.45;101184.84;4995139;28;20082;-65
2023/06/26 03:21:43;;;;;;;19.25;12.70;;;;;;;20.60;76.77;101189.53;4995152;28;20514;-66
2023/06/26 03:24:08;;;;;;;21.00;13.02;;;;;;;20.49;76.96;101188.50;4994933;28;20045;-65
2023/06/26 03:26:34;;;;;;;22.48;13.10;;;;;;;20.41;77.75;101196.75;4993626;28;20080;-64
2023/06/26 03:28:59;;;;;;;20.58;12.88;;;;;;;20.35;78.35;101184.19;4994915;28;20073;-65
2023/06/26 03:31:24;;;;;;;20.55;13.57;;;;;;;20.33;78.50;101194.16;4993647;28;20037;-65
2023/06/26 03:33:50;;;;;;;20.92;12.90;;;;;;;20.30;78.94;101183.63;4994983;28;20050;-65
2023/06/26 03:36:15;;;;;;;20.88;12.30;;;;;;;20.21;79.35;101186.66;4994962;28;20034;-65
2023/06/26 03:38:41;;;;;;;19.90;12.52;;;;;;;20.15;79.82;101183.31;4995012;28;20066;-64
2023/06/26 03:41:06;;;;;;;20.85;12.43;;;;;;;20.14;80.16;101186.47;4994989;28;20022;-65
2023/06/26 03:43:31;;;;;;;21.30;12.45;;;;;;;20.13;80.04;101179.22;4995053;28;20030;-65
2023/06/26 03:45:57;;;;;;;20.42;12.82;;;;;;;20.12;80.12;101184.03;4994566;28;20117;-65
2023/06/26 03:48:22;;;;;;;19.20;11.50;;;;;;;20.10;80.43;101189.19;4994769;28;20032;-65
2023/06/26 03:50:47;;;;;;;20.40;11.18;;;;;;;20.03;80.56;101181.38;4994781;28;20372;-65
2023/06/26 03:53:13;;;;;;;20.80;11.75;;;;;;;20.00;80.76;101186.91;4994785;28;20191;-65
2023/06/26 03:55:38;;;;;;;19.58;11.57;;;;;;;19.98;80.99;101192.91;4994671;28;20105;-64
2023/06/26 03:58:04;;;;;;;20.30;11.45;;;;;;;19.96;81.18;101186.84;4994693;28;20113;-65
2023/06/26 04:00:30;;;;;;;19.50;11.50;;;;;;;19.92;81.43;101185.94;4994454;28;20414;-64
2023/06/26 04:02:55;;;;;;;21.38;12.07;;;;;;;19.86;81.60;101188.22;4994373;28;20042;-64
2023/06/26 04:05:20;;;;;;;20.80;11.95;;;;;;;19.89;81.98;101204.31;4993669;28;20030;-65
2023/06/26 04:07:49;;;;;;;22.05;11.85;;;;;;;19.87;81.84;101206.69;4994377;28;20076;-64
2023/06/26 04:10:14;;;;;;;21.13;11.32;;;;;;;19.85;82.21;101214.66;4994606;28;20030;-64
2023/06/26 04:12:39;;;;;;;21.35;11.63;;;;;;;19.80;82.74;101224.13;4994525;28;20068;-64
2023/06/26 04:15:05;;;;;;;23.88;11.65;;;;;;;19.78;83.17;101228.47;4993054;28;20065;-65
2023/06/26 04:17:30;;;;;;;21.88;11.10;;;;;;;19.79;83.64;101227.25;4994226;28;20065;-65
2023/06/26 04:19:56;;;;;;;21.35;12.00;;;;;;;19.78;84.06;101229.28;4994178;28;20327;-64
2023/06/26 04:22:21;;;;;;;21.15;11.45;;;;;;;19.79;84.77;101238.50;4994100;28;20474;-64
2023/06/26 04:24:47;;;;;;;22.27;12.10;;;;;;;19.85;84.83;101241.84;4994026;28;20117;-64
2023/06/26 04:27:13;;;;;;;22.02;12.27;;;;;;;19.84;85.12;101238.25;4994049;28;20112;-64
2023/06/26 04:29:39;;;;;;;21.50;11.85;;;;;;;19.85;85.93;101241.84;5013131;28;20041;-64
2023/06/26 04:32:04;;;;;;;20.83;11.88;;;;;;;19.85;86.18;101241.84;5012335;28;20446;-64
2023/06/26 04:34:33;;;;;;;21.83;12.18;;;;;;;19.93;86.32;101250.16;5013527;28;20553;-64
2023/06/26 04:36:59;;;;;;;20.33;12.00;;;;;;;19.98;86.18;101237.84;5013406;28;20034;-64
2023/06/26 04:39:24;;;;;;;23.58;12.20;;;;;;;20.02;86.17;101244.38;5013343;28;20026;-64
2023/06/26 04:41:49;;;;;;;22.85;12.43;;;;;;;20.06;86.42;101248.06;5013403;28;20030;-65
2023/06/26 04:44:15;;;;;;;23.17;11.95;;;;;;;20.13;86.51;101260.66;5013409;28;20635;-63
2023/06/26 04:46:43;;;;;;;23.48;12.43;;;;;;;20.15;86.61;101267.56;5013115;28;20040;-64
2023/06/26 04:49:09;;;;;;;22.70;11.80;;;;;;;20.22;86.44;101267.75;5013471;28;20176;-65
2023/06/26 04:51:40;;;;;;;23.13;12.18;;;;;;;20.27;86.57;101263.84;5013311;28;20055;-65
2023/06/26 04:54:08;;;;;;;23.33;12.60;;;;;;;20.26;86.86;101270.63;5013432;28;20029;-65
2023/06/26 04:56:35;;;;;;;22.40;12.23;;;;;;;20.34;86.92;101274.44;5013287;28;20117;-65
2023/06/26 04:59:00;;;;;;;24.15;11.95;;;;;;;20.35;86.77;101264.84;5013227;28;20096;-65
2023/06/26 05:01:28;;;;;;;23.05;13.05;;;;;;;20.36;86.79;101274.88;5013250;28;20442;-64
2023/06/26 05:03:54;;;;;;;23.40;12.98;;;;;;;20.42;86.54;101291.09;5013332;28;20034;-65
2023/06/26 05:06:19;;;;;;;24.52;12.50;;;;;;;20.57;86.31;101280.22;5011668;28;20102;-65
2023/06/26 05:08:44;;;;;;;21.67;12.80;;;;;;;20.62;86.03;101281.94;5013025;28;20437;-65
2023/06/26 05:11:09;;;;;;;22.85;13.07;;;;;;;20.60;85.80;101276.66;5013109;28;20152;-66
2023/06/26 05:13:35;;;;;;;22.08;12.65;;;;;;;20.62;85.84;101287.56;5012979;28;20109;-65
2023/06/26 05:16:00;;;;;;;22.30;12.57;;;;;;;20.59;85.37;101275.06;5012846;28;20113;-65
2023/06/26 05:18:25;;;;;;;22.42;12.10;;;;;;;20.69;85.44;101287.72;5012698;28;20022;-66
2023/06/26 05:20:51;;;;;;;26.60;12.02;;;;;;;20.68;84.56;101294.53;5004402;28;20027;-65
2023/06/26 05:23:17;;;;;;;23.23;12.18;;;;;;;20.77;83.65;101298.00;4978868;28;20031;-65
2023/06/26 05:25:42;;;;;;;20.20;11.52;;;;;;;20.57;82.11;101275.41;4973615;28;20110;-66
2023/06/26 05:28:10;;;;;;;21.75;11.07;;;;;;;20.61;82.25;101297.19;4973388;28;20027;-66
2023/06/26 05:30:36;;;;;;;24.23;11.52;;;;;;;20.48;82.61;101304.91;4981110;28;20046;-66
2023/06/26 05:33:02;;;;;;;24.27;11.32;;;;;;;20.51;82.45;101292.91;4992916;28;20065;-64
2023/06/26 05:35:32;;;;;;;24.13;11.23;;;;;;;20.66;81.82;101303.34;4991523;28;20068;-65
2023/06/26 05:37:58;;;;;;;22.10;11.20;;;;;;;20.85;81.18;101301.81;4992846;28;20129;-65
2023/06/26 05:40:24;;;;;;;23.63;11.55;;;;;;;20.99;80.56;101309.75;4992730;28;20038;-65
2023/06/26 05:42:50;;;;;;;24.23;11.88;;;;;;;20.92;80.05;101310.41;4992566;28;20050;-65
2023/06/26 05:45:16;;;;;;;21.60;10.95;;;;;;;20.87;80.16;101311.50;4992638;28;20026;-65
2023/06/26 05:47:42;;;;;;;21.63;10.77;;;;;;;20.76;80.15;101318.84;4992578;28;20030;-65
2023/06/26 05:50:08;;;;;;;22.13;11.05;;;;;;;20.73;80.49;101313.94;4992746;28;20026;-65
2023/06/26 05:52:35;;;;;;;23.52;11.15;;;;;;;20.77;80.00;101320.50;4992499;28;20176;-64
2023/06/26 05:55:01;;;;;;;22.90;11.02;;;;;;;20.82;79.75;101328.66;4992640;28;20030;-65
2023/06/26 05:57:28;;;;;;;22.95;10.70;;;;;;;20.93;78.99;101323.28;4992542;28;20109;-65
2023/06/26 05:59:53;;;;;;;20.92;10.73;;;;;;;20.86;78.46;101331.56;4992903;28;20036;-65
2023/06/26 06:02:19;;;;;;;20.60;10.70;;;;;;;20.86;78.29;101335.16;4991162;28;20034;-65
2023/06/26 06:04:44;;;;;;;23.15;10.80;;;;;;;20.83;78.00;101335.88;4992249;28;20068;-66
2023/06/26 06:07:10;;;;;;;21.23;10.50;;;;;;;20.76;77.29;101338.53;4992323;28;20039;-65
2023/06/26 06:09:35;;;;;;;22.40;10.60;;;;;;;20.75;77.49;101342.53;4992371;28;20390;-65
2023/06/26 06:12:01;;;;;;;22.52;10.98;;;;;;;20.79;77.92;101340.63;4992376;28;20101;-65
2023/06/26 06:14:27;;;;;;;22.40;10.75;;;;;;;20.94;77.14;101371.88;4992647;28;20034;-65
2023/06/26 06:16:53;;;;;;;23.23;10.70;;;;;;;20.95;76.54;101337.78;4992491;28;20038;-66
2023/06/26 06:19:18;;;;;;;22.33;11.00;;;;;;;20.94;76.11;101358.66;4992430;28;20030;-66
2023/06/26 06:21:43;;;;;;;23.35;11.02;;;;;;;20.95;76.94;101379.97;4992400;28;20025;-64
2023/06/26 06:24:09;;;;;;;22.63;10.90;;;;;;;20.94;77.01;101374.69;4992356;28;20037;-66
2023/06/26 06:26:35;;;;;;;21.27;10.60;;;;;;;21.10;76.61;101366.25;4992178;28;20026;-67
2023/06/26 06:29:00;;;;;;;23.38;10.93;;;;;;;21.24;76.05;101375.03;4993373;28;20038;-65
2023/06/26 06:31:28;;;;;;;21.55;10.82;;;;;;;21.31;75.03;101378.00;4996051;28;20092;-67
2023/06/26 06:33:54;;;;;;;20.88;10.38;;;;;;;21.47;74.87;101377.13;4996373;28;20034;-67
2023/06/26 06:36:19;;;;;;;21.98;10.60;;;;;;;21.56;74.46;101380.53;4996336;28;20022;-66
2023/06/26 06:38:45;;;;;;;22.25;11.00;;;;;;;21.65;73.97;101374.72;4996203;28;20662;-66
2023/06/26 06:41:10;;;;;;;22.65;10.60;;;;;;;21.80;73.35;101376.66;4996060;28;20493;-65
2023/06/26 06:43:36;;;;;;;21.70;10.20;;;;;;;21.77;72.76;101383.00;4994952;28;20544;-65
2023/06/26 06:46:02;;;;;;;20.77;10.25;;;;;;;21.77;72.24;101383.00;4975466;28;20054;-65
2023/06/26 06:48:27;;;;;;;20.77;10.07;;;;;;;21.82;72.59;101393.19;4975517;28;20035;-66
2023/06/26 06:50:52;;;;;;;22.35;11.10;;;;;;;21.87;71.62;101397.72;4975175;28;20030;-65
2023/06/26 06:53:20;;;;;;;20.30;10.80;;;;;;;21.97;71.60;101405.53;4973888;28;20030;-66
2023/06/26 06:55:46;;;;;;;20.38;10.20;;;;;;;22.01;71.49;101394.38;4981757;28;20049;-65
2023/06/26 06:58:11;;;;;;;22.10;10.85;;;;;;;21.98;71.00;101401.53;4994515;28;20034;-65
2023/06/26 07:00:37;;;;;;;19.95;10.98;;;;;;;22.11;70.89;101416.28;4993303;28;20026;-65
2023/06/26 07:03:02;;;;;;;22.55;11.02;;;;;;;22.19;70.79;101409.63;4994613;28;20124;-66
2023/06/26 07:05:28;;;;;;;19.58;10.70;;;;;;;22.34;70.13;101413.50;4994518;28;20050;-65
2023/06/26 07:07:53;;;;;;;21.48;10.82;;;;;;;22.34;69.13;101421.16;4993038;28;20363;-65
2023/06/26 07:10:18;;;;;;;23.23;11.23;;;;;;;22.27;68.63;101421.84;4994286;28;20379;-66
2023/06/26 07:12:44;;;;;;;21.73;11.13;;;;;;;22.23;69.28;101433.03;4994430;28;20676;-66
2023/06/26 07:15:10;;;;;;;20.95;11.23;;;;;;;22.22;69.52;101428.59;4994301;28;20069;-66
2023/06/26 07:17:37;;;;;;;20.00;10.70;;;;;;;22.05;69.93;101429.06;4993973;28;20398;-66
2023/06/26 07:20:07;;;;;;;18.92;10.80;;;;;;;21.86;70.53;101424.25;4992903;28;20038;-66
2023/06/26 07:22:34;;;;;;;19.85;10.38;;;;;;;21.57;71.11;101432.03;4994249;28;20033;-66
2023/06/26 07:24:59;;;;;;;20.13;11.05;;;;;;;21.65;71.30;101439.50;4994201;28;20165;-66
2023/06/26 07:27:25;;;;;;;20.73;11.55;;;;;;;21.64;70.77;101449.91;4992692;28;20053;-67
2023/06/26 07:29:50;;;;;;;17.73;10.50;;;;;;;21.71;70.65;101452.09;4994354;28;20177;-67
2023/06/26 07:32:16;;;;;;;19.90;11.10;;;;;;;21.76;70.72;101449.00;4994088;28;20078;-66
2023/06/26 07:34:41;;;;;;;19.25;10.32;;;;;;;21.92;70.18;101453.75;4993895;28;20045;-67
2023/06/26 07:37:07;;;;;;;19.92;10.40;;;;;;;21.91;70.20;101458.56;4993792;28;20042;-67
2023/06/26 07:39:32;;;;;;;21.70;11.00;;;;;;;22.03;70.41;101454.78;4997766;28;20029;-67
2023/06/26 07:42:00;;;;;;;19.08;10.73;;;;;;;22.16;70.39;101458.25;5010935;28;20048;-67
2023/06/26 07:44:26;;;;;;;18.38;10.82;;;;;;;22.35;69.44;101454.59;5013034;28;20405;-67
2023/06/26 07:46:51;;;;;;;18.90;10.68;;;;;;;22.61;68.56;101467.22;5012858;28;20026;-67
2023/06/26 07:49:17;;;;;;;19.50;11.15;;;;;;;22.61;68.54;101475.69;5011376;28;20041;-66
2023/06/26 07:51:42;;;;;;;17.98;10.23;;;;;;;22.63;68.74;101464.81;5012879;28;20034;-67
2023/06/26 07:54:07;;;;;;;20.20;10.50;;;;;;;22.62;67.91;101470.84;5012397;28;20042;-66
2023/06/26 07:56:56;;;;;;;20.80;11.02;;;;;;;22.81;66.79;101479.25;5012408;28;20033;-67
2023/06/26 07:59:22;;;;;;;19.75;11.32;;;;;;;22.93;65.44;101485.91;5012550;28;20458;-67
2023/06/26 08:01:48;;;;;;;20.38;11.90;;;;;;;22.94;64.99;101487.53;5012434;28;20116;-67
2023/06/26 08:04:14;;;;;;;19.27;11.35;;;;;;;22.93;65.97;101485.91;5012822;28;20172;-66
2023/06/26 08:06:40;;;;;;;18.60;11.13;;;;;;;22.65;65.79;101487.81;5012292;28;20107;-67
2023/06/26 08:09:07;;;;;;;18.73;11.13;;;;;;;22.13;66.67;101488.00;5011355;28;20041;-68
2023/06/26 08:11:33;;;;;;;20.92;10.30;;;;;;;21.94;67.88;101493.63;5012529;28;20026;-68
2023/06/26 08:13:58;;;;;;;18.30;10.27;;;;;;;22.00;67.77;101497.78;5012323;28;20033;-67
2023/06/26 08:16:23;;;;;;;18.52;10.02;;;;;;;22.12;65.18;101496.81;5012531;28;20104;-67
2023/06/26 08:18:49;;;;;;;18.20;9.70;;;;;;;22.12;66.25;101503.28;5012646;28;20184;-67
2023/06/26 08:21:14;;;;;;;17.40;9.77;;;;;;;22.32;64.11;101505.25;5010938;28;20025;-68
2023/06/26 08:23:39;;;;;;;17.55;9.35;;;;;;;22.47;61.38;101497.94;5011022;28;20469;-66
2023/06/26 08:26:05;;;;;;;16.00;8.85;;;;;;;22.61;59.10;101508.69;5012168;28;20055;-66
2023/06/26 08:28:30;;;;;;;15.82;8.40;;;;;;;22.56;56.42;101507.81;5011818;28;20030;-66
2023/06/26 08:30:55;;;;;;;15.38;8.40;;;;;;;22.54;54.47;101517.81;5011998;28;20030;-66
2023/06/26 08:33:21;;;;;;;12.00;7.60;;;;;;;22.32;53.44;101511.72;5011983;28;20444;-66
2023/06/26 08:35:46;;;;;;;14.05;8.40;;;;;;;22.18;54.11;101517.06;5011821;28;20033;-66
2023/06/26 08:38:11;;;;;;;13.75;8.25;;;;;;;22.28;54.89;101511.66;5011859;28;20109;-66
2023/06/26 08:40:38;;;;;;;12.50;8.43;;;;;;;22.37;54.35;101510.63;5012167;28;20040;-65
2023/06/26 08:43:04;;;;;;;15.23;8.18;;;;;;;22.34;54.06;101512.16;5011522;28;20026;-66
2023/06/26 08:45:29;;;;;;;14.00;7.88;;;;;;;22.39;54.23;101509.06;5012101;28;20033;-65
2023/06/26 08:47:59;;;;;;;13.93;8.20;;;;;;;22.25;54.61;101518.03;5010477;28;20033;-66
2023/06/26 08:50:30;;;;;;;13.90;8.18;;;;;;;22.21;55.74;101519.94;5010593;28;20030;-65
2023/06/26 08:53:04;;;;;;;13.07;8.07;;;;;;;22.39;56.71;101522.31;5011586;28;20504;-65
2023/06/26 08:55:33;;;;;;;17.52;8.60;;;;;;;22.48;55.55;101520.16;5011897;28;20025;-65
2023/06/26 08:57:58;;;;;;;14.55;8.80;;;;;;;22.63;55.53;101526.06;5011651;28;20478;-65
2023/06/26 09:00:24;;;;;;;13.50;7.65;;;;;;;22.52;51.40;101539.94;5012021;28;20033;-66
2023/06/26 09:02:50;;;;;;;13.50;8.07;;;;;;;22.28;52.17;101528.56;5011938;28;20160;-66
2023/06/26 09:05:15;;;;;;;14.55;8.50;;;;;;;22.30;52.23;101536.66;5011968;28;20410;-65
2023/06/26 09:07:40;;;;;;;15.02;8.60;;;;;;;22.49;52.89;101541.47;5012183;28;20168;-65
2023/06/26 09:10:07;;;;;;;14.95;9.00;;;;;;;22.66;53.83;101540.22;5012441;28;20502;-65
2023/06/26 09:12:32;;;;;;;17.30;9.07;;;;;;;22.83;54.94;101540.94;5011934;28;20038;-65
2023/06/26 09:14:57;;;;;;;15.18;8.20;;;;;;;22.92;55.14;101549.97;5011766;28;20115;-65
2023/06/26 09:17:30;;;;;;;14.35;8.88;;;;;;;22.96;52.47;101552.84;5011703;28;20386;-66
2023/06/26 09:19:56;;;;;;;14.27;7.68;;;;;;;22.80;52.15;101555.78;5011885;28;20099;-65
2023/06/26 09:22:22;;;;;;;16.13;8.70;;;;;;;22.63;53.34;101555.06;5011511;28;20080;-65
2023/06/26 09:24:48;;;;;;;14.95;8.15;;;;;;;22.35;54.07;101575.00;5011545;28;20033;-65
2023/06/26 09:27:13;;;;;;;17.13;8.55;;;;;;;22.48;54.03;101550.31;5010005;28;20390;-65
2023/06/26 09:29:39;;;;;;;14.23;8.73;;;;;;;22.72;54.11;101541.53;5010879;28;20196;-65
2023/06/26 09:32:04;;;;;;;15.80;8.27;;;;;;;22.99;53.56;101552.09;4994209;28;20018;-65
2023/06/26 09:34:31;;;;;;;16.33;8.60;;;;;;;23.04;52.98;101551.81;4991669;28;20037;-64
2023/06/26 09:36:57;;;;;;;12.98;7.68;;;;;;;23.10;50.57;101558.75;4991722;28;20030;-65
2023/06/26 09:39:23;;;;;;;11.77;7.88;;;;;;;23.19;49.70;101569.84;4991527;28;20044;-66
2023/06/26 09:41:49;;;;;;;12.40;8.00;;;;;;;23.33;49.42;101572.09;4990736;28;20038;-66
2023/06/26 09:44:15;;;;;;;14.68;7.82;;;;;;;23.43;48.44;101562.97;4991433;28;20104;-65
2023/06/26 09:46:40;;;;;;;13.07;8.00;;;;;;;23.63;48.78;101577.00;4991132;28;20074;-65
2023/06/26 09:49:10;;;;;;;13.85;7.43;;;;;;;23.79;47.13;101586.16;4990148;28;20125;-65
2023/06/26 09:51:38;;;;;;;12.73;7.93;;;;;;;24.11;47.82;101579.38;4991427;28;20054;-65
2023/06/26 09:54:04;;;;;;;12.90;7.70;;;;;;;24.01;44.71;101597.00;4990072;28;20034;-64
2023/06/26 09:56:32;;;;;;;14.27;7.60;;;;;;;23.86;45.59;101602.41;4991567;28;20092;-65
2023/06/26 09:59:03;;;;;;;15.85;8.57;;;;;;;23.63;47.24;101585.50;4991439;28;20027;-65
2023/06/26 10:01:30;;;;;;;13.05;7.68;;;;;;;23.58;48.24;101586.63;4991459;28;20145;-66
2023/06/26 10:03:58;;;;;;;15.07;8.02;;;;;;;23.71;45.37;101601.34;4990588;28;20042;-65
2023/06/26 10:06:35;;;;;;;14.48;7.90;;;;;;;23.83;45.74;101592.69;4991260;28;20447;-66
2023/06/26 10:09:02;;;;;;;15.70;8.02;;;;;;;23.89;44.64;101590.34;4991228;28;20030;-66
2023/06/26 10:11:36;;;;;;;14.73;7.55;;;;;;;24.01;45.65;101606.28;4991138;28;20026;-66
2023/06/26 10:14:04;;;;;;;15.95;8.00;;;;;;;24.03;45.54;101591.78;4991283;28;20121;-65
2023/06/26 10:16:32;;;;;;;11.00;7.00;;;;;;;23.72;43.20;101616.31;4990979;28;20506;-65
2023/06/26 10:19:06;;;;;;;12.43;6.25;;;;;;;23.35;44.64;101624.16;4991132;28;20110;-65
2023/06/26 10:21:34;;;;;;;16.85;7.80;;;;;;;23.21;45.42;101621.06;4989773;28;20042;-65
2023/06/26 10:24:00;;;;;;;12.52;7.45;;;;;;;23.31;44.94;101626.09;4990826;28;20061;-65
2023/06/26 10:26:28;;;;;;;14.95;7.80;;;;;;;23.44;42.99;101614.63;4990970;28;20037;-65
2023/06/26 10:28:56;;;;;;;12.35;7.10;;;;;;;23.48;43.21;101613.50;4989437;28;20054;-66
2023/06/26 10:31:26;;;;;;;11.50;7.05;;;;;;;23.63;42.33;101610.91;4990865;28;20106;-65
2023/06/26 10:33:52;;;;;;;15.18;7.10;;;;;;;23.88;42.33;101614.13;4990876;28;20515;-66
2023/06/26 10:36:21;;;;;;;13.50;7.28;;;;;;;23.93;42.46;101616.66;4990832;28;20490;-66
2023/06/26 10:38:57;;;;;;;9.40;7.18;;;;;;;23.95;43.23;101611.44;4989522;28;20054;-65
2023/06/26 10:41:25;;;;;;;13.60;7.47;;;;;;;24.09;43.02;101615.69;4991417;28;20088;-66
2023/06/26 10:44:11;;;;;;;11.73;7.20;;;;;;;24.05;42.57;101612.81;4990221;28;20483;-67
2023/06/26 10:46:58;;;;;;;14.30;8.00;;;;;;;24.32;42.71;101626.94;4989864;28;20035;-66
2023/06/26 10:49:29;;;;;;;12.82;7.47;;;;;;;24.41;42.08;101629.47;4991239;28;20030;-66
2023/06/26 10:51:57;;;;;;;14.07;7.10;;;;;;;23.98;40.36;101630.47;4991356;28;20138;-66
2023/06/26 10:54:23;;;;;;;13.38;7.28;;;;;;;24.01;40.03;101651.50;4991275;28;20038;-66
2023/06/26 10:56:50;;;;;;;14.00;6.80;;;;;;;24.09;40.06;101638.31;4990798;28;20088;-66
2023/06/26 10:59:21;;;;;;;12.40;7.00;;;;;;;23.98;39.00;101626.84;4990799;28;20058;-66
2023/06/26 11:02:01;;;;;;;11.23;7.20;;;;;;;24.05;39.87;101632.59;4990699;28;20053;-66
2023/06/26 11:04:44;;;;;;;11.43;7.00;;;;;;;24.34;39.74;101620.88;4990319;28;20475;-66
2023/06/26 11:07:25;;;;;;;11.50;7.50;;;;;;;24.57;38.96;101632.91;4990544;28;20467;-66
2023/06/26 11:10:10;;;;;;;13.23;6.97;;;;;;;24.44;38.65;101648.50;4990259;28;20457;-67